sensor_id;sensor_type;location;lat;lon;timestamp;P1;durP1;ratioP1;P2;durP2;ratioP2
80425;SDS011;69766;51.476;5.704;2023-07-29T00:02:21;6.40;;;4.00;;
80425;SDS011;69766;51.476;5.704;2023-07-29T00:04:47;6.85;;;4.30;;
80425;SDS011;69766;51.476;5.704;2023-07-29T00:07:13;7.70;;;3.95;;
80425;SDS011;69766;51.476;5.704;2023-07-29T00:09:38;7.22;;;4.57;;
80425;SDS011;69766;51.476;5.704;2023-07-29T00:12:07;8.02;;;4.40;;
80425;SDS011;69766;51.476;5.704;2023-07-29T00:14:33;7.60;;;4.30;;
80425;SDS011;69766;51.476;5.704;2023-07-29T00:17:01;6.78;;;3.85;;
80425;SDS011;69766;51.476;5.704;2023-07-29T00:19:27;6.20;;;4.07;;
80425;SDS011;69766;51.476;5.704;2023-07-29T00:21:53;5.93;;;4.10;;
80425;SDS011;69766;51.476;5.704;2023-07-29T00:24:19;8.90;;;4.28;;
80425;SDS011;69766;51.476;5.704;2023-07-29T00:26:44;8.82;;;4.65;;
80425;SDS011;69766;51.476;5.704;2023-07-29T00:29:10;8.88;;;4.60;;
80425;SDS011;69766;51.476;5.704;2023-07-29T00:31:35;8.65;;;4.28;;
80425;SDS011;69766;51.476;5.704;2023-07-29T00:34:01;7.72;;;4.63;;
80425;SDS011;69766;51.476;5.704;2023-07-29T00:36:27;9.00;;;4.22;;
80425;SDS011;69766;51.476;5.704;2023-07-29T00:38:55;7.63;;;4.18;;
80425;SDS011;69766;51.476;5.704;2023-07-29T00:41:22;7.40;;;4.47;;
80425;SDS011;69766;51.476;5.704;2023-07-29T00:43:48;7.40;;;4.00;;
80425;SDS011;69766;51.476;5.704;2023-07-29T00:46:17;6.05;;;4.13;;
80425;SDS011;69766;51.476;5.704;2023-07-29T00:48:43;6.78;;;4.03;;
80425;SDS011;69766;51.476;5.704;2023-07-29T00:51:09;8.77;;;4.38;;
80425;SDS011;69766;51.476;5.704;2023-07-29T00:53:35;5.30;;;4.20;;
80425;SDS011;69766;51.476;5.704;2023-07-29T00:56:04;9.80;;;4.28;;
80425;SDS011;69766;51.476;5.704;2023-07-29T00:58:29;6.75;;;3.72;;
80425;SDS011;69766;51.476;5.704;2023-07-29T01:00:55;6.20;;;4.32;;
80425;SDS011;69766;51.476;5.704;2023-07-29T01:03:21;9.73;;;4.05;;
80425;SDS011;69766;51.476;5.704;2023-07-29T01:05:50;7.60;;;4.45;;
80425;SDS011;69766;51.476;5.704;2023-07-29T01:08:44;7.00;;;4.30;;
80425;SDS011;69766;51.476;5.704;2023-07-29T01:14:00;8.00;;;4.60;;
80425;SDS011;69766;51.476;5.704;2023-07-29T01:16:47;6.88;;;4.57;;
80425;SDS011;69766;51.476;5.704;2023-07-29T01:19:33;6.45;;;4.45;;
80425;SDS011;69766;51.476;5.704;2023-07-29T01:22:23;8.40;;;4.50;;
80425;SDS011;69766;51.476;5.704;2023-07-29T01:24:50;9.40;;;5.20;;
80425;SDS011;69766;51.476;5.704;2023-07-29T01:27:21;7.25;;;5.10;;
80425;SDS011;69766;51.476;5.704;2023-07-29T01:29:46;7.10;;;4.72;;
80425;SDS011;69766;51.476;5.704;2023-07-29T01:32:17;8.15;;;4.75;;
80425;SDS011;69766;51.476;5.704;2023-07-29T01:38:09;9.32;;;5.07;;
80425;SDS011;69766;51.476;5.704;2023-07-29T01:40:56;6.65;;;4.40;;
80425;SDS011;69766;51.476;5.704;2023-07-29T01:43:31;6.32;;;4.68;;
80425;SDS011;69766;51.476;5.704;2023-07-29T01:45:58;7.72;;;4.95;;
80425;SDS011;69766;51.476;5.704;2023-07-29T01:48:25;6.85;;;5.03;;
80425;SDS011;69766;51.476;5.704;2023-07-29T01:50:52;10.73;;;5.00;;
80425;SDS011;69766;51.476;5.704;2023-07-29T01:53:18;9.07;;;4.90;;
80425;SDS011;69766;51.476;5.704;2023-07-29T01:55:43;5.40;;;4.43;;
80425;SDS011;69766;51.476;5.704;2023-07-29T01:58:10;6.72;;;4.70;;
80425;SDS011;69766;51.476;5.704;2023-07-29T02:00:36;7.70;;;5.15;;
80425;SDS011;69766;51.476;5.704;2023-07-29T02:03:01;8.52;;;5.85;;
80425;SDS011;69766;51.476;5.704;2023-07-29T02:05:27;9.02;;;5.00;;
80425;SDS011;69766;51.476;5.704;2023-07-29T02:07:54;7.00;;;5.05;;
80425;SDS011;69766;51.476;5.704;2023-07-29T02:10:20;7.70;;;4.80;;
80425;SDS011;69766;51.476;5.704;2023-07-29T02:12:45;11.85;;;5.40;;
80425;SDS011;69766;51.476;5.704;2023-07-29T02:15:11;8.65;;;5.00;;
80425;SDS011;69766;51.476;5.704;2023-07-29T02:17:37;7.15;;;4.47;;
80425;SDS011;69766;51.476;5.704;2023-07-29T02:20:03;6.47;;;3.50;;
80425;SDS011;69766;51.476;5.704;2023-07-29T02:22:29;5.85;;;3.00;;
80425;SDS011;69766;51.476;5.704;2023-07-29T02:24:55;6.57;;;3.13;;
80425;SDS011;69766;51.476;5.704;2023-07-29T02:27:21;6.75;;;3.38;;
80425;SDS011;69766;51.476;5.704;2023-07-29T02:29:46;6.55;;;2.95;;
80425;SDS011;69766;51.476;5.704;2023-07-29T02:32:12;4.82;;;2.60;;
80425;SDS011;69766;51.476;5.704;2023-07-29T02:34:38;5.25;;;3.03;;
80425;SDS011;69766;51.476;5.704;2023-07-29T02:37:03;4.93;;;2.85;;
80425;SDS011;69766;51.476;5.704;2023-07-29T02:39:30;6.75;;;3.03;;
80425;SDS011;69766;51.476;5.704;2023-07-29T02:41:56;6.82;;;2.80;;
80425;SDS011;69766;51.476;5.704;2023-07-29T02:44:23;5.47;;;3.08;;
80425;SDS011;69766;51.476;5.704;2023-07-29T02:46:49;5.68;;;2.90;;
80425;SDS011;69766;51.476;5.704;2023-07-29T02:49:14;5.47;;;2.60;;
80425;SDS011;69766;51.476;5.704;2023-07-29T02:51:40;6.05;;;2.67;;
80425;SDS011;69766;51.476;5.704;2023-07-29T02:54:06;9.35;;;3.30;;
80425;SDS011;69766;51.476;5.704;2023-07-29T02:56:31;4.70;;;2.50;;
80425;SDS011;69766;51.476;5.704;2023-07-29T02:58:57;3.90;;;2.17;;
80425;SDS011;69766;51.476;5.704;2023-07-29T03:01:23;4.00;;;2.22;;
80425;SDS011;69766;51.476;5.704;2023-07-29T03:03:50;6.10;;;2.28;;
80425;SDS011;69766;51.476;5.704;2023-07-29T03:06:16;5.20;;;2.55;;
80425;SDS011;69766;51.476;5.704;2023-07-29T03:08:41;3.92;;;2.50;;
80425;SDS011;69766;51.476;5.704;2023-07-29T03:11:11;3.85;;;2.22;;
80425;SDS011;69766;51.476;5.704;2023-07-29T03:13:38;4.18;;;2.13;;
80425;SDS011;69766;51.476;5.704;2023-07-29T03:16:11;5.38;;;2.33;;
80425;SDS011;69766;51.476;5.704;2023-07-29T03:18:39;4.22;;;2.55;;
80425;SDS011;69766;51.476;5.704;2023-07-29T03:21:05;5.45;;;2.38;;
80425;SDS011;69766;51.476;5.704;2023-07-29T03:23:32;6.38;;;2.65;;
80425;SDS011;69766;51.476;5.704;2023-07-29T03:25:59;5.68;;;2.88;;
80425;SDS011;69766;51.476;5.704;2023-07-29T03:28:26;7.45;;;2.78;;
80425;SDS011;69766;51.476;5.704;2023-07-29T03:30:56;4.43;;;2.63;;
80425;SDS011;69766;51.476;5.704;2023-07-29T03:33:22;5.28;;;3.30;;
80425;SDS011;69766;51.476;5.704;2023-07-29T03:35:49;7.00;;;3.58;;
80425;SDS011;69766;51.476;5.704;2023-07-29T03:38:14;7.28;;;3.60;;
80425;SDS011;69766;51.476;5.704;2023-07-29T03:40:41;7.20;;;3.90;;
80425;SDS011;69766;51.476;5.704;2023-07-29T03:43:07;8.52;;;4.53;;
80425;SDS011;69766;51.476;5.704;2023-07-29T03:45:33;6.90;;;4.40;;
80425;SDS011;69766;51.476;5.704;2023-07-29T03:48:00;9.23;;;4.95;;
80425;SDS011;69766;51.476;5.704;2023-07-29T03:50:26;9.30;;;5.15;;
80425;SDS011;69766;51.476;5.704;2023-07-29T03:52:52;7.80;;;4.32;;
80425;SDS011;69766;51.476;5.704;2023-07-29T03:55:17;10.38;;;5.30;;
80425;SDS011;69766;51.476;5.704;2023-07-29T03:57:43;8.35;;;4.70;;
80425;SDS011;69766;51.476;5.704;2023-07-29T04:00:09;7.30;;;4.63;;
80425;SDS011;69766;51.476;5.704;2023-07-29T04:02:35;10.82;;;4.72;;
80425;SDS011;69766;51.476;5.704;2023-07-29T04:05:04;8.55;;;4.65;;
80425;SDS011;69766;51.476;5.704;2023-07-29T04:07:33;7.30;;;4.75;;
80425;SDS011;69766;51.476;5.704;2023-07-29T04:10:02;9.88;;;4.85;;
80425;SDS011;69766;51.476;5.704;2023-07-29T04:12:28;7.60;;;4.13;;
80425;SDS011;69766;51.476;5.704;2023-07-29T04:14:54;9.15;;;4.97;;
80425;SDS011;69766;51.476;5.704;2023-07-29T04:17:20;7.68;;;4.20;;
80425;SDS011;69766;51.476;5.704;2023-07-29T04:19:45;8.60;;;5.15;;
80425;SDS011;69766;51.476;5.704;2023-07-29T04:22:11;8.60;;;4.60;;
80425;SDS011;69766;51.476;5.704;2023-07-29T04:24:37;9.65;;;5.30;;
80425;SDS011;69766;51.476;5.704;2023-07-29T04:27:03;9.30;;;4.93;;
80425;SDS011;69766;51.476;5.704;2023-07-29T04:29:29;9.48;;;4.90;;
80425;SDS011;69766;51.476;5.704;2023-07-29T04:31:55;8.50;;;4.90;;
80425;SDS011;69766;51.476;5.704;2023-07-29T04:34:20;9.90;;;5.55;;
80425;SDS011;69766;51.476;5.704;2023-07-29T04:36:46;6.78;;;4.50;;
80425;SDS011;69766;51.476;5.704;2023-07-29T04:39:12;9.35;;;5.00;;
80425;SDS011;69766;51.476;5.704;2023-07-29T04:41:38;8.13;;;4.68;;
80425;SDS011;69766;51.476;5.704;2023-07-29T04:44:04;9.10;;;4.68;;
80425;SDS011;69766;51.476;5.704;2023-07-29T04:46:30;10.55;;;5.30;;
80425;SDS011;69766;51.476;5.704;2023-07-29T04:48:55;8.80;;;4.90;;
80425;SDS011;69766;51.476;5.704;2023-07-29T04:51:21;9.18;;;4.55;;
80425;SDS011;69766;51.476;5.704;2023-07-29T04:53:47;6.53;;;4.05;;
80425;SDS011;69766;51.476;5.704;2023-07-29T04:56:13;11.07;;;3.92;;
80425;SDS011;69766;51.476;5.704;2023-07-29T04:58:38;8.13;;;4.53;;
80425;SDS011;69766;51.476;5.704;2023-07-29T05:01:04;6.85;;;4.00;;
80425;SDS011;69766;51.476;5.704;2023-07-29T05:03:30;7.47;;;3.97;;
80425;SDS011;69766;51.476;5.704;2023-07-29T05:05:57;6.57;;;3.78;;
80425;SDS011;69766;51.476;5.704;2023-07-29T05:08:24;7.30;;;3.70;;
80425;SDS011;69766;51.476;5.704;2023-07-29T05:10:50;7.43;;;3.15;;
80425;SDS011;69766;51.476;5.704;2023-07-29T05:13:17;8.48;;;3.63;;
80425;SDS011;69766;51.476;5.704;2023-07-29T05:15:44;11.45;;;3.88;;
80425;SDS011;69766;51.476;5.704;2023-07-29T05:18:09;6.05;;;3.30;;
80425;SDS011;69766;51.476;5.704;2023-07-29T05:20:36;7.50;;;3.58;;
80425;SDS011;69766;51.476;5.704;2023-07-29T05:23:01;6.38;;;3.28;;
80425;SDS011;69766;51.476;5.704;2023-07-29T05:25:28;6.90;;;3.50;;
80425;SDS011;69766;51.476;5.704;2023-07-29T05:27:54;4.47;;;2.83;;
80425;SDS011;69766;51.476;5.704;2023-07-29T05:30:20;6.22;;;3.35;;
80425;SDS011;69766;51.476;5.704;2023-07-29T05:32:46;6.45;;;3.10;;
80425;SDS011;69766;51.476;5.704;2023-07-29T05:35:11;5.15;;;2.92;;
80425;SDS011;69766;51.476;5.704;2023-07-29T05:37:40;5.00;;;3.22;;
80425;SDS011;69766;51.476;5.704;2023-07-29T05:40:06;5.95;;;2.72;;
80425;SDS011;69766;51.476;5.704;2023-07-29T05:42:33;6.53;;;3.10;;
80425;SDS011;69766;51.476;5.704;2023-07-29T05:44:59;8.45;;;3.15;;
80425;SDS011;69766;51.476;5.704;2023-07-29T05:47:25;4.38;;;2.63;;
80425;SDS011;69766;51.476;5.704;2023-07-29T05:49:52;6.70;;;2.53;;
80425;SDS011;69766;51.476;5.704;2023-07-29T05:52:17;4.40;;;2.40;;
80425;SDS011;69766;51.476;5.704;2023-07-29T05:54:43;5.57;;;2.42;;
80425;SDS011;69766;51.476;5.704;2023-07-29T05:57:09;5.88;;;2.88;;
80425;SDS011;69766;51.476;5.704;2023-07-29T05:59:36;7.00;;;2.67;;
80425;SDS011;69766;51.476;5.704;2023-07-29T06:02:02;5.78;;;3.35;;
80425;SDS011;69766;51.476;5.704;2023-07-29T06:04:28;4.65;;;2.75;;
80425;SDS011;69766;51.476;5.704;2023-07-29T06:06:53;5.78;;;2.55;;
80425;SDS011;69766;51.476;5.704;2023-07-29T06:09:20;4.90;;;2.33;;
80425;SDS011;69766;51.476;5.704;2023-07-29T06:11:50;5.40;;;2.08;;
80425;SDS011;69766;51.476;5.704;2023-07-29T06:14:16;5.07;;;2.60;;
80425;SDS011;69766;51.476;5.704;2023-07-29T06:16:41;5.07;;;2.83;;
80425;SDS011;69766;51.476;5.704;2023-07-29T06:19:07;4.25;;;2.13;;
80425;SDS011;69766;51.476;5.704;2023-07-29T06:21:34;4.88;;;2.40;;
80425;SDS011;69766;51.476;5.704;2023-07-29T06:24:00;5.03;;;2.38;;
80425;SDS011;69766;51.476;5.704;2023-07-29T06:26:26;4.75;;;2.15;;
80425;SDS011;69766;51.476;5.704;2023-07-29T06:28:51;3.75;;;2.22;;
80425;SDS011;69766;51.476;5.704;2023-07-29T06:31:17;6.47;;;2.70;;
80425;SDS011;69766;51.476;5.704;2023-07-29T06:33:47;5.10;;;2.40;;
80425;SDS011;69766;51.476;5.704;2023-07-29T06:36:13;6.10;;;2.38;;
80425;SDS011;69766;51.476;5.704;2023-07-29T06:38:39;5.05;;;2.10;;
80425;SDS011;69766;51.476;5.704;2023-07-29T06:41:06;5.35;;;2.20;;
80425;SDS011;69766;51.476;5.704;2023-07-29T06:43:31;4.75;;;2.13;;
80425;SDS011;69766;51.476;5.704;2023-07-29T06:45:57;4.35;;;1.77;;
80425;SDS011;69766;51.476;5.704;2023-07-29T06:48:23;3.67;;;1.98;;
80425;SDS011;69766;51.476;5.704;2023-07-29T06:50:49;4.50;;;1.95;;
80425;SDS011;69766;51.476;5.704;2023-07-29T06:53:17;4.68;;;1.95;;
80425;SDS011;69766;51.476;5.704;2023-07-29T06:55:44;4.43;;;2.30;;
80425;SDS011;69766;51.476;5.704;2023-07-29T06:58:10;5.78;;;2.10;;
80425;SDS011;69766;51.476;5.704;2023-07-29T07:00:35;5.10;;;2.17;;
80425;SDS011;69766;51.476;5.704;2023-07-29T07:03:01;3.15;;;1.77;;
80425;SDS011;69766;51.476;5.704;2023-07-29T07:05:27;4.25;;;2.00;;
80425;SDS011;69766;51.476;5.704;2023-07-29T07:07:53;3.22;;;1.90;;
80425;SDS011;69766;51.476;5.704;2023-07-29T07:10:18;3.20;;;1.80;;
80425;SDS011;69766;51.476;5.704;2023-07-29T07:12:44;4.60;;;1.75;;
80425;SDS011;69766;51.476;5.704;2023-07-29T07:15:10;3.42;;;1.70;;
80425;SDS011;69766;51.476;5.704;2023-07-29T07:17:36;2.85;;;1.55;;
80425;SDS011;69766;51.476;5.704;2023-07-29T07:20:01;2.30;;;1.20;;
80425;SDS011;69766;51.476;5.704;2023-07-29T07:22:28;2.80;;;1.70;;
80425;SDS011;69766;51.476;5.704;2023-07-29T07:24:54;2.70;;;1.52;;
80425;SDS011;69766;51.476;5.704;2023-07-29T07:27:19;4.47;;;1.85;;
80425;SDS011;69766;51.476;5.704;2023-07-29T07:32:42;2.72;;;1.70;;
80425;SDS011;69766;51.476;5.704;2023-07-29T07:35:08;4.05;;;1.70;;
80425;SDS011;69766;51.476;5.704;2023-07-29T07:37:34;4.88;;;1.60;;
80425;SDS011;69766;51.476;5.704;2023-07-29T07:39:59;2.95;;;1.75;;
80425;SDS011;69766;51.476;5.704;2023-07-29T07:42:25;3.60;;;1.50;;
80425;SDS011;69766;51.476;5.704;2023-07-29T07:44:51;2.85;;;1.42;;
80425;SDS011;69766;51.476;5.704;2023-07-29T07:47:16;4.20;;;1.88;;
80425;SDS011;69766;51.476;5.704;2023-07-29T07:49:42;5.85;;;1.60;;
80425;SDS011;69766;51.476;5.704;2023-07-29T07:52:17;4.47;;;1.73;;
80425;SDS011;69766;51.476;5.704;2023-07-29T07:54:54;2.63;;;1.60;;
80425;SDS011;69766;51.476;5.704;2023-07-29T07:57:22;3.40;;;1.40;;
80425;SDS011;69766;51.476;5.704;2023-07-29T07:59:48;2.67;;;1.30;;
80425;SDS011;69766;51.476;5.704;2023-07-29T08:02:14;4.13;;;1.60;;
80425;SDS011;69766;51.476;5.704;2023-07-29T08:04:40;3.10;;;1.20;;
80425;SDS011;69766;51.476;5.704;2023-07-29T08:07:09;2.95;;;1.30;;
80425;SDS011;69766;51.476;5.704;2023-07-29T08:09:36;4.15;;;1.42;;
80425;SDS011;69766;51.476;5.704;2023-07-29T08:12:01;2.22;;;1.20;;
80425;SDS011;69766;51.476;5.704;2023-07-29T08:14:33;3.72;;;1.08;;
80425;SDS011;69766;51.476;5.704;2023-07-29T08:16:59;1.77;;;1.02;;
80425;SDS011;69766;51.476;5.704;2023-07-29T08:19:31;2.20;;;1.23;;
80425;SDS011;69766;51.476;5.704;2023-07-29T08:21:56;3.08;;;1.30;;
80425;SDS011;69766;51.476;5.704;2023-07-29T08:24:23;3.70;;;1.20;;
80425;SDS011;69766;51.476;5.704;2023-07-29T08:26:48;2.45;;;0.90;;
80425;SDS011;69766;51.476;5.704;2023-07-29T08:29:22;2.83;;;1.50;;
80425;SDS011;69766;51.476;5.704;2023-07-29T08:31:48;3.92;;;1.40;;
80425;SDS011;69766;51.476;5.704;2023-07-29T08:34:23;3.45;;;1.40;;
80425;SDS011;69766;51.476;5.704;2023-07-29T08:36:51;1.63;;;1.00;;
80425;SDS011;69766;51.476;5.704;2023-07-29T08:39:20;3.45;;;1.55;;
80425;SDS011;69766;51.476;5.704;2023-07-29T08:42:07;2.05;;;1.13;;
80425;SDS011;69766;51.476;5.704;2023-07-29T08:47:29;3.20;;;1.48;;
80425;SDS011;69766;51.476;5.704;2023-07-29T08:49:58;3.92;;;1.40;;
80425;SDS011;69766;51.476;5.704;2023-07-29T08:52:26;2.75;;;1.23;;
80425;SDS011;69766;51.476;5.704;2023-07-29T08:54:57;2.33;;;0.93;;
80425;SDS011;69766;51.476;5.704;2023-07-29T08:57:24;3.78;;;1.25;;
80425;SDS011;69766;51.476;5.704;2023-07-29T08:59:52;2.00;;;1.15;;
80425;SDS011;69766;51.476;5.704;2023-07-29T09:02:20;2.35;;;1.20;;
80425;SDS011;69766;51.476;5.704;2023-07-29T09:04:45;2.53;;;1.20;;
80425;SDS011;69766;51.476;5.704;2023-07-29T09:07:11;3.85;;;1.13;;
80425;SDS011;69766;51.476;5.704;2023-07-29T09:09:55;3.03;;;1.10;;
80425;SDS011;69766;51.476;5.704;2023-07-29T09:12:29;3.58;;;1.17;;
80425;SDS011;69766;51.476;5.704;2023-07-29T09:14:58;2.70;;;1.20;;
80425;SDS011;69766;51.476;5.704;2023-07-29T09:17:32;3.75;;;1.30;;
80425;SDS011;69766;51.476;5.704;2023-07-29T09:20:01;3.00;;;1.25;;
80425;SDS011;69766;51.476;5.704;2023-07-29T09:22:28;2.58;;;1.10;;
80425;SDS011;69766;51.476;5.704;2023-07-29T09:24:56;2.83;;;1.23;;
80425;SDS011;69766;51.476;5.704;2023-07-29T09:27:26;2.28;;;0.93;;
80425;SDS011;69766;51.476;5.704;2023-07-29T09:29:53;1.77;;;0.85;;
80425;SDS011;69766;51.476;5.704;2023-07-29T09:32:23;2.38;;;1.20;;
80425;SDS011;69766;51.476;5.704;2023-07-29T09:34:50;3.00;;;1.30;;
80425;SDS011;69766;51.476;5.704;2023-07-29T09:37:23;1.80;;;1.00;;
80425;SDS011;69766;51.476;5.704;2023-07-29T09:39:52;2.72;;;0.85;;
80425;SDS011;69766;51.476;5.704;2023-07-29T09:42:22;1.60;;;0.75;;
80425;SDS011;69766;51.476;5.704;2023-07-29T09:44:57;2.20;;;0.85;;
80425;SDS011;69766;51.476;5.704;2023-07-29T09:47:26;1.77;;;0.85;;
80425;SDS011;69766;51.476;5.704;2023-07-29T09:49:57;2.35;;;1.13;;
80425;SDS011;69766;51.476;5.704;2023-07-29T09:52:32;2.40;;;0.90;;
80425;SDS011;69766;51.476;5.704;2023-07-29T09:55:01;2.30;;;1.08;;
80425;SDS011;69766;51.476;5.704;2023-07-29T09:57:27;2.95;;;1.20;;
80425;SDS011;69766;51.476;5.704;2023-07-29T10:00:02;2.08;;;1.02;;
80425;SDS011;69766;51.476;5.704;2023-07-29T10:02:38;1.95;;;1.10;;
80425;SDS011;69766;51.476;5.704;2023-07-29T10:05:09;2.45;;;1.30;;
80425;SDS011;69766;51.476;5.704;2023-07-29T10:07:38;2.15;;;1.20;;
80425;SDS011;69766;51.476;5.704;2023-07-29T10:10:05;3.15;;;1.17;;
80425;SDS011;69766;51.476;5.704;2023-07-29T10:12:34;2.83;;;1.20;;
80425;SDS011;69766;51.476;5.704;2023-07-29T10:15:09;1.70;;;0.80;;
80425;SDS011;69766;51.476;5.704;2023-07-29T10:17:36;3.03;;;1.05;;
80425;SDS011;69766;51.476;5.704;2023-07-29T10:20:03;1.88;;;1.00;;
80425;SDS011;69766;51.476;5.704;2023-07-29T10:22:39;2.35;;;1.33;;
80425;SDS011;69766;51.476;5.704;2023-07-29T10:25:07;2.92;;;1.10;;
80425;SDS011;69766;51.476;5.704;2023-07-29T10:28:05;2.83;;;0.93;;
80425;SDS011;69766;51.476;5.704;2023-07-29T10:33:16;2.58;;;1.30;;
80425;SDS011;69766;51.476;5.704;2023-07-29T10:35:42;2.00;;;1.15;;
80425;SDS011;69766;51.476;5.704;2023-07-29T10:38:11;1.95;;;1.15;;
80425;SDS011;69766;51.476;5.704;2023-07-29T10:40:55;1.70;;;1.10;;
80425;SDS011;69766;51.476;5.704;2023-07-29T10:49:16;2.45;;;1.20;;
80425;SDS011;69766;51.476;5.704;2023-07-29T10:54:14;2.13;;;1.10;;
80425;SDS011;69766;51.476;5.704;2023-07-29T10:56:43;4.40;;;1.30;;
80425;SDS011;69766;51.476;5.704;2023-07-29T11:04:32;2.10;;;1.25;;
80425;SDS011;69766;51.476;5.704;2023-07-29T11:09:41;2.42;;;1.08;;
80425;SDS011;69766;51.476;5.704;2023-07-29T11:15:26;3.40;;;1.40;;
80425;SDS011;69766;51.476;5.704;2023-07-29T11:17:59;2.35;;;1.20;;
80425;SDS011;69766;51.476;5.704;2023-07-29T11:20:35;4.00;;;1.50;;
80425;SDS011;69766;51.476;5.704;2023-07-29T11:23:12;2.72;;;1.25;;
80425;SDS011;69766;51.476;5.704;2023-07-29T11:28:42;2.10;;;1.20;;
80425;SDS011;69766;51.476;5.704;2023-07-29T11:31:38;3.15;;;1.63;;
80425;SDS011;69766;51.476;5.704;2023-07-29T11:34:06;2.83;;;1.70;;
80425;SDS011;69766;51.476;5.704;2023-07-29T11:36:32;2.58;;;1.40;;
80425;SDS011;69766;51.476;5.704;2023-07-29T11:38:58;2.22;;;1.27;;
80425;SDS011;69766;51.476;5.704;2023-07-29T11:41:34;2.00;;;1.08;;
80425;SDS011;69766;51.476;5.704;2023-07-29T11:44:09;2.80;;;1.58;;
80425;SDS011;69766;51.476;5.704;2023-07-29T11:46:46;2.08;;;1.10;;
80425;SDS011;69766;51.476;5.704;2023-07-29T11:49:13;2.33;;;1.20;;
80425;SDS011;69766;51.476;5.704;2023-07-29T11:51:40;6.68;;;1.92;;
80425;SDS011;69766;51.476;5.704;2023-07-29T11:54:06;3.95;;;1.83;;
80425;SDS011;69766;51.476;5.704;2023-07-29T11:56:35;2.53;;;1.70;;
80425;SDS011;69766;51.476;5.704;2023-07-29T11:59:07;6.13;;;2.10;;
80425;SDS011;69766;51.476;5.704;2023-07-29T12:01:36;4.30;;;2.00;;
80425;SDS011;69766;51.476;5.704;2023-07-29T12:04:11;3.35;;;1.75;;
80425;SDS011;69766;51.476;5.704;2023-07-29T12:06:37;4.28;;;1.88;;
80425;SDS011;69766;51.476;5.704;2023-07-29T12:09:07;6.43;;;2.50;;
80425;SDS011;69766;51.476;5.704;2023-07-29T12:11:34;3.60;;;1.98;;
80425;SDS011;69766;51.476;5.704;2023-07-29T12:14:00;3.95;;;1.90;;
80425;SDS011;69766;51.476;5.704;2023-07-29T12:16:31;4.88;;;2.28;;
80425;SDS011;69766;51.476;5.704;2023-07-29T12:19:04;4.80;;;2.15;;
80425;SDS011;69766;51.476;5.704;2023-07-29T12:21:33;5.90;;;2.40;;
80425;SDS011;69766;51.476;5.704;2023-07-29T12:28:12;5.90;;;2.60;;
80425;SDS011;69766;51.476;5.704;2023-07-29T12:30:53;4.72;;;2.03;;
80425;SDS011;69766;51.476;5.704;2023-07-29T12:33:33;4.97;;;2.25;;
80425;SDS011;69766;51.476;5.704;2023-07-29T12:36:14;4.65;;;2.33;;
80425;SDS011;69766;51.476;5.704;2023-07-29T12:38:44;5.28;;;2.50;;
80425;SDS011;69766;51.476;5.704;2023-07-29T12:41:10;4.25;;;2.70;;
80425;SDS011;69766;51.476;5.704;2023-07-29T12:43:36;6.28;;;2.67;;
80425;SDS011;69766;51.476;5.704;2023-07-29T12:46:08;5.30;;;2.90;;
80425;SDS011;69766;51.476;5.704;2023-07-29T12:48:39;6.20;;;3.10;;
80425;SDS011;69766;51.476;5.704;2023-07-29T12:51:28;5.30;;;3.03;;
80425;SDS011;69766;51.476;5.704;2023-07-29T12:53:57;5.85;;;3.35;;
80425;SDS011;69766;51.476;5.704;2023-07-29T12:56:26;15.93;;;4.75;;
80425;SDS011;69766;51.476;5.704;2023-07-29T12:59:04;6.93;;;3.22;;
80425;SDS011;69766;51.476;5.704;2023-07-29T13:01:30;5.47;;;2.85;;
80425;SDS011;69766;51.476;5.704;2023-07-29T13:03:59;8.00;;;3.90;;
80425;SDS011;69766;51.476;5.704;2023-07-29T13:06:25;12.50;;;4.32;;
80425;SDS011;69766;51.476;5.704;2023-07-29T13:08:53;7.43;;;3.60;;
80425;SDS011;69766;51.476;5.704;2023-07-29T13:11:19;7.78;;;3.35;;
80425;SDS011;69766;51.476;5.704;2023-07-29T13:13:50;4.50;;;2.30;;
80425;SDS011;69766;51.476;5.704;2023-07-29T13:16:16;4.25;;;2.67;;
80425;SDS011;69766;51.476;5.704;2023-07-29T13:18:49;4.78;;;1.70;;
80425;SDS011;69766;51.476;5.704;2023-07-29T13:21:15;2.85;;;1.35;;
80425;SDS011;69766;51.476;5.704;2023-07-29T13:23:44;1.67;;;1.13;;
80425;SDS011;69766;51.476;5.704;2023-07-29T13:26:09;2.45;;;1.33;;
80425;SDS011;69766;51.476;5.704;2023-07-29T13:28:36;1.75;;;1.15;;
80425;SDS011;69766;51.476;5.704;2023-07-29T13:31:05;3.40;;;1.33;;
80425;SDS011;69766;51.476;5.704;2023-07-29T13:33:31;2.03;;;1.33;;
80425;SDS011;69766;51.476;5.704;2023-07-29T13:35:59;4.43;;;1.42;;
80425;SDS011;69766;51.476;5.704;2023-07-29T13:38:30;2.78;;;1.25;;
80425;SDS011;69766;51.476;5.704;2023-07-29T13:40:56;2.15;;;1.10;;
80425;SDS011;69766;51.476;5.704;2023-07-29T13:43:21;3.15;;;1.33;;
80425;SDS011;69766;51.476;5.704;2023-07-29T13:45:47;2.80;;;1.40;;
80425;SDS011;69766;51.476;5.704;2023-07-29T13:51:29;3.58;;;2.05;;
80425;SDS011;69766;51.476;5.704;2023-07-29T13:53:57;3.25;;;1.10;;
80425;SDS011;69766;51.476;5.704;2023-07-29T13:56:25;2.33;;;1.27;;
80425;SDS011;69766;51.476;5.704;2023-07-29T13:58:59;3.58;;;1.00;;
80425;SDS011;69766;51.476;5.704;2023-07-29T14:01:31;2.75;;;1.35;;
80425;SDS011;69766;51.476;5.704;2023-07-29T14:03:57;2.78;;;1.60;;
80425;SDS011;69766;51.476;5.704;2023-07-29T14:06:29;3.17;;;1.48;;
80425;SDS011;69766;51.476;5.704;2023-07-29T14:08:58;3.53;;;1.40;;
80425;SDS011;69766;51.476;5.704;2023-07-29T14:11:26;1.35;;;0.90;;
80425;SDS011;69766;51.476;5.704;2023-07-29T14:13:52;3.25;;;1.10;;
80425;SDS011;69766;51.476;5.704;2023-07-29T14:16:18;3.47;;;1.50;;
80425;SDS011;69766;51.476;5.704;2023-07-29T14:18:51;2.33;;;1.42;;
80425;SDS011;69766;51.476;5.704;2023-07-29T14:21:23;2.42;;;1.50;;
80425;SDS011;69766;51.476;5.704;2023-07-29T14:23:54;2.67;;;1.10;;
80425;SDS011;69766;51.476;5.704;2023-07-29T14:26:20;2.97;;;1.55;;
80425;SDS011;69766;51.476;5.704;2023-07-29T14:28:51;2.33;;;1.25;;
80425;SDS011;69766;51.476;5.704;2023-07-29T14:31:17;3.00;;;1.30;;
80425;SDS011;69766;51.476;5.704;2023-07-29T14:33:45;2.35;;;1.30;;
80425;SDS011;69766;51.476;5.704;2023-07-29T14:36:11;3.13;;;1.30;;
80425;SDS011;69766;51.476;5.704;2023-07-29T14:38:39;3.45;;;1.60;;
80425;SDS011;69766;51.476;5.704;2023-07-29T14:41:05;3.33;;;1.38;;
80425;SDS011;69766;51.476;5.704;2023-07-29T14:43:31;2.65;;;1.40;;
80425;SDS011;69766;51.476;5.704;2023-07-29T14:45:59;2.38;;;1.33;;
80425;SDS011;69766;51.476;5.704;2023-07-29T14:48:25;2.53;;;1.35;;
80425;SDS011;69766;51.476;5.704;2023-07-29T14:50:51;3.60;;;1.45;;
80425;SDS011;69766;51.476;5.704;2023-07-29T14:53:17;1.77;;;1.20;;
80425;SDS011;69766;51.476;5.704;2023-07-29T14:55:49;3.35;;;1.42;;
80425;SDS011;69766;51.476;5.704;2023-07-29T14:58:17;2.92;;;1.50;;
80425;SDS011;69766;51.476;5.704;2023-07-29T15:00:56;3.53;;;1.65;;
80425;SDS011;69766;51.476;5.704;2023-07-29T15:03:25;2.58;;;1.33;;
80425;SDS011;69766;51.476;5.704;2023-07-29T15:05:51;3.25;;;1.63;;
80425;SDS011;69766;51.476;5.704;2023-07-29T15:08:29;3.00;;;1.55;;
80425;SDS011;69766;51.476;5.704;2023-07-29T15:10:57;6.93;;;1.65;;
80425;SDS011;69766;51.476;5.704;2023-07-29T15:13:26;2.60;;;1.48;;
80425;SDS011;69766;51.476;5.704;2023-07-29T15:15:58;2.53;;;1.45;;
80425;SDS011;69766;51.476;5.704;2023-07-29T15:18:27;3.70;;;1.73;;
80425;SDS011;69766;51.476;5.704;2023-07-29T15:20:58;2.67;;;1.30;;
80425;SDS011;69766;51.476;5.704;2023-07-29T15:23:40;3.05;;;1.55;;
80425;SDS011;69766;51.476;5.704;2023-07-29T15:26:07;3.50;;;1.67;;
80425;SDS011;69766;51.476;5.704;2023-07-29T15:28:35;2.55;;;1.10;;
80425;SDS011;69766;51.476;5.704;2023-07-29T15:31:01;2.83;;;1.38;;
80425;SDS011;69766;51.476;5.704;2023-07-29T15:33:30;2.97;;;1.50;;
80425;SDS011;69766;51.476;5.704;2023-07-29T15:35:59;3.03;;;1.70;;
80425;SDS011;69766;51.476;5.704;2023-07-29T15:38:25;3.10;;;1.58;;
80425;SDS011;69766;51.476;5.704;2023-07-29T15:40:57;5.43;;;1.90;;